Peshtigo, WI

3:46 PM CDT on September 20, 2014 (GMT -0500)
Door County Cherryland | Change Station
CLOSE
Current Station
Airport
Location: Sturgeon Bay,
Elevation: 725 ft
Nearby Weather Stations

Elev 725 ft 44.84 °N, 87.42 °W | Updated 11 minutes ago

Clear
Clear
72 °F
Feels Like 72 °F
N
16
Wind Variable Wind from WSW
Gusts 22 mph

Today
High -- | Low -- °F
--% Chance of Precip.
Yesterday
High -- | Low -- °F
Precip. -- in
6:35 AM 6:52 PM
Waning Crescent, 10% visible
Pressure 29.66 in
Visibility 10.0 miles
Clouds Clear
Dew Point 63 °F
Humidity 73%
Rainfall 0.00 in
Snow Depth Not available.
UV 3 out of 12
Pollen .50 out of 12
Air Quality Not available.
Flu Activity Not available.
METAR KSUE 202035Z AUTO 24014G19KT 10SM CLR 22/17 A2966 RMK AO1

More Conditions Fewer Conditions

Pressure 29.66 in
Visibility 10.0 miles
Clouds Clear
Dew Point 63 °F
Humidity 73%
Rainfall 0.00 in
Snow Depth Not available.
UV 3 out of 12
Pollen .50 out of 12
Air Quality Not available.
Flu Activity Not available.
METAR KSUE 202035Z AUTO 24014G19KT 10SM CLR 22/17 A2966 RMK AO1

More Conditions Fewer Conditions

10-Day Weather Forecast

Almanac

Astronomy

Sep. 20, 2014 Rise Set
Actual Time 6:35 AM CDT 6:52 PM CDT
Civil Twilight 6:06 AM CDT 7:21 PM CDT
Nautical Twilight 5:31 AM CDT 7:56 PM CDT
Astronomical Twilight 4:56 AM CDT 8:31 PM CDT
Moon 3:07 AM CDT 5:01 PM CDT
Length of Visible Light 13h 15m
Length of Day
12h 16m
Tomorrow will be 3m 6s shorter.
Waning Crescent, 10% of the Moon is Illuminated
Today
Waning Crescent
Sep 24
New
Oct 1
First Quarter
Oct 8
Full
Oct 15
Last Quarter

Today's Extremes

State Highs State Lows

Community

WunderPhotos

Upload Photos

1,754,945 photos uploaded!

WunderBlogs® & News

Nearby

Snow Depth

Station Depth Elevation
No new snow has been reported.

Earthquake Activity

City Distance Mag. Time & Date
No recent earthquake activity has been reported nearby.
Minimum magnitude displayed is 2.5.

Coastal Water Temperatures

Place Temperature
Menominee, MI 60.1 °F

Nearby Weather Stations